createdAt,value
2022-09-04T00:14:59.029Z,17.5
2022-09-04T00:44:27.182Z,17.3
2022-09-04T01:13:53.340Z,17.2
2022-09-04T01:43:10.657Z,16.9
2022-09-04T02:12:40.273Z,16.6
2022-09-04T02:41:48.917Z,16.6
2022-09-04T03:11:10.808Z,16.3
2022-09-04T03:40:33.387Z,16.1
2022-09-04T04:09:49.234Z,15.9
2022-09-04T04:39:13.778Z,15.7
2022-09-04T05:08:26.494Z,15.6
2022-09-04T05:37:27.782Z,15.6
2022-09-04T06:06:51.415Z,15.9
2022-09-04T06:36:08.150Z,16.4
2022-09-04T07:05:31.960Z,16.9
2022-09-04T07:35:04.311Z,18
2022-09-04T08:04:32.025Z,19.2
2022-09-04T08:33:44.692Z,20.5
2022-09-04T09:03:00.896Z,22.1
2022-09-04T09:32:14.726Z,23.5
2022-09-04T10:01:36.937Z,24.5
2022-09-04T10:30:58.358Z,25.8
2022-09-04T11:00:09.469Z,26.3
2022-09-04T11:29:41.534Z,31.7
2022-09-04T11:59:22.072Z,35.5
2022-09-04T12:28:39.689Z,30.5
2022-09-04T12:58:02.878Z,27.7
2022-09-04T13:27:22.772Z,27.2
2022-09-04T13:56:41.016Z,27.3
2022-09-04T14:26:06.317Z,28.2
2022-09-04T14:55:18.561Z,32.2
2022-09-04T15:24:38.991Z,30.3
2022-09-04T15:53:56.612Z,29.4
2022-09-04T16:23:25.090Z,29
2022-09-04T16:52:36.759Z,28
2022-09-04T17:23:34.061Z,27.3
2022-09-04T17:50:51.769Z,26.2
2022-09-04T18:20:10.276Z,24.9
2022-09-04T18:50:27.734Z,23.5
2022-09-04T19:18:11.851Z,22.5
2022-09-04T19:47:35.554Z,21.7
2022-09-04T20:16:49.221Z,20.9
2022-09-04T20:46:54.130Z,20.4
2022-09-04T21:14:45.260Z,19.9
2022-09-04T21:43:19.924Z,19.5
2022-09-04T22:13:36.853Z,19.2
2022-09-04T22:41:30.278Z,18.8
2022-09-04T23:13:45.402Z,18.5
2022-09-04T23:39:43.954Z,18.3
